Altura, Minnesota
Current Conditions -  °F | °C
As of 3:54 AM on Sunday 21 Dec 2014 (Local Time) from KONA Reporting Station
Haze Haze  
Wind Chill: 29°   Ceiling: 1200
Heat Index: 34°   Visibility: 4mi
Dew Point: 32°   Wind: 6mph
Humidity: 93%   Direction: 140°SE
Pressure: 30.07"   Gusts: NA
Location:  44.07°N, 91.94°W
Report Text: KONA 210954Z AUTO 14005KT 4SM BR OVC012 01/00 A3007 RMK AO2
Loading
Personal Weather Stations






























Interactive Weather Map New forecast layout! Learn more

10-Day Weather Forecast

Advertisements
Track Severe Weather on mobile